Time;durP1;ratioP1;P1;durP2;ratioP2;P2;SDS_P1;SDS_P2;PMS_P1;PMS_P2;Temp;Humidity;BMP_temperature;BMP_pressure;BME280_temperature;BME280_humidity;BME280_pressure;Samples;Min_cycle;Max_cycle;Signal;HPM_P1;HPM_P2
2022/05/31 00:00:33;;;;;;;11.90;5.18;;;;;;;-147.90;100.00;59510.75;4973856;28;20410;-80
2022/05/31 00:03:01;;;;;;;10.68;5.78;;;;;;;-147.90;100.00;59510.75;4973670;28;20489;-80
2022/05/31 00:05:28;;;;;;;9.65;5.50;;;;;;;-147.90;100.00;59510.75;4973852;28;20065;-80
2022/05/31 00:07:56;;;;;;;7.70;5.15;;;;;;;-147.90;100.00;59510.75;4973825;28;20050;-80
2022/05/31 00:10:24;;;;;;;11.18;5.70;;;;;;;-147.90;100.00;59510.75;4972060;28;20493;-80
2022/05/31 00:12:51;;;;;;;10.13;5.80;;;;;;;-147.90;100.00;59510.75;4971828;28;20093;-80
2022/05/31 00:15:20;;;;;;;11.73;5.68;;;;;;;-147.90;100.00;59510.75;4973413;28;20441;-80
2022/05/31 00:17:47;;;;;;;8.43;5.70;;;;;;;-147.90;100.00;59510.75;4973310;28;20500;-80
2022/05/31 00:20:15;;;;;;;7.88;5.57;;;;;;;-147.90;100.00;59510.75;4973583;28;20093;-80
2022/05/31 00:22:44;;;;;;;10.70;5.15;;;;;;;-147.90;100.00;59510.75;4973707;28;20464;-80
2022/05/31 00:25:13;;;;;;;10.23;5.97;;;;;;;-147.90;100.00;59510.75;4972203;28;20106;-81
2022/05/31 00:27:40;;;;;;;10.73;5.20;;;;;;;-147.90;100.00;59510.75;4971961;28;20054;-80
2022/05/31 00:30:08;;;;;;;10.73;6.03;;;;;;;-147.90;100.00;59510.75;4971243;28;20043;-80
2022/05/31 00:32:40;;;;;;;10.07;5.97;;;;;;;-147.90;100.00;59510.75;4973002;28;20101;-81
2022/05/31 00:35:11;;;;;;;10.25;6.10;;;;;;;-147.90;100.00;59510.75;4973215;28;20047;-81
2022/05/31 00:37:39;;;;;;;10.48;5.80;;;;;;;-147.90;100.00;59510.75;4971091;28;20054;-80
2022/05/31 00:40:07;;;;;;;14.55;6.20;;;;;;;-147.90;100.00;59510.75;4973105;28;20497;-80
2022/05/31 00:42:51;;;;;;;8.68;5.55;;;;;;;-147.90;100.00;59510.75;4972880;28;20043;-81
2022/05/31 00:45:18;;;;;;;12.23;7.03;;;;;;;-147.90;100.00;59510.75;4963968;28;20051;-80
2022/05/31 00:47:45;;;;;;;10.98;6.30;;;;;;;-147.90;100.00;59510.75;4964292;28;20102;-80
2022/05/31 00:50:20;;;;;;;12.60;6.53;;;;;;;-147.90;100.00;59510.75;4963375;28;20048;-80
2022/05/31 00:52:49;;;;;;;8.88;5.65;;;;;;;-147.90;100.00;59510.75;4967174;28;20046;-81
2022/05/31 00:55:20;;;;;;;9.88;5.70;;;;;;;-147.90;100.00;59510.75;4969497;28;20046;-80
2022/05/31 00:57:52;;;;;;;10.13;6.18;;;;;;;-147.90;100.00;59510.75;4968925;28;21099;-81
2022/05/31 01:00:20;;;;;;;10.82;6.45;;;;;;;-147.90;100.00;59510.75;4969791;28;20050;-81
2022/05/31 01:02:49;;;;;;;11.52;6.40;;;;;;;-147.90;100.00;59510.75;4969198;28;20039;-81
2022/05/31 01:05:17;;;;;;;12.15;5.57;;;;;;;-147.90;100.00;59510.75;4963632;28;20053;-80
2022/05/31 01:07:43;;;;;;;10.57;6.30;;;;;;;-147.90;100.00;59510.75;4966126;28;20119;-80
2022/05/31 01:10:13;;;;;;;11.98;6.50;;;;;;;-147.90;100.00;59510.75;4968702;28;20055;-80
2022/05/31 01:12:42;;;;;;;11.32;6.55;;;;;;;-147.90;100.00;59510.75;4970448;28;20101;-80
2022/05/31 01:15:11;;;;;;;13.07;6.63;;;;;;;-147.90;100.00;59510.75;4970002;28;20139;-81
2022/05/31 01:17:40;;;;;;;11.13;6.28;;;;;;;-147.90;100.00;59510.75;4971219;28;20051;-81
2022/05/31 01:20:10;;;;;;;13.68;7.15;;;;;;;-147.90;100.00;59510.75;4969548;28;20042;-81
2022/05/31 01:22:40;;;;;;;12.43;7.05;;;;;;;-147.90;100.00;59510.75;4970355;28;20053;-80
2022/05/31 01:25:29;;;;;;;14.85;7.13;;;;;;;-147.90;100.00;59510.75;4964978;28;20050;-81
2022/05/31 01:28:08;;;;;;;11.25;6.50;;;;;;;-147.90;100.00;59510.75;4964388;28;20513;-81
2022/05/31 01:30:38;;;;;;;12.38;7.53;;;;;;;-147.90;100.00;59510.75;4964184;28;20060;-81
2022/05/31 01:33:09;;;;;;;10.10;6.78;;;;;;;-147.90;100.00;59510.75;4964018;28;20097;-80
2022/05/31 01:35:38;;;;;;;16.95;6.63;;;;;;;-147.90;100.00;59510.75;4965544;28;20043;-81
2022/05/31 01:38:10;;;;;;;11.25;6.93;;;;;;;-147.90;100.00;59510.75;4964174;28;20137;-81
2022/05/31 01:40:44;;;;;;;10.82;6.32;;;;;;;-147.90;100.00;59510.75;4965364;28;20446;-81
2022/05/31 01:43:11;;;;;;;11.75;6.03;;;;;;;-147.90;100.00;59510.75;4962338;28;20054;-80
2022/05/31 01:45:43;;;;;;;12.27;6.60;;;;;;;-147.90;100.00;59510.75;4961531;28;20126;-81
2022/05/31 01:48:10;;;;;;;13.25;5.88;;;;;;;-147.90;100.00;59510.75;4961081;28;20102;-80
2022/05/31 01:50:38;;;;;;;9.73;6.13;;;;;;;-147.90;100.00;59510.75;4962554;28;20070;-81
2022/05/31 01:53:07;;;;;;;12.20;6.70;;;;;;;-147.90;100.00;59510.75;4960991;28;20051;-81
2022/05/31 01:55:36;;;;;;;10.70;6.38;;;;;;;-147.90;100.00;59510.75;4964087;28;20050;-80
2022/05/31 01:58:06;;;;;;;9.38;6.10;;;;;;;-147.90;100.00;59510.75;4961203;28;20146;-81
2022/05/31 02:00:33;;;;;;;10.48;7.15;;;;;;;-147.90;100.00;59510.75;4963311;28;20118;-81
2022/05/31 02:03:04;;;;;;;11.13;5.80;;;;;;;-147.90;100.00;59510.75;4963501;28;20055;-80
2022/05/31 02:05:30;;;;;;;12.68;6.57;;;;;;;-147.90;100.00;59510.75;4963967;28;20057;-81
2022/05/31 02:08:00;;;;;;;11.82;6.75;;;;;;;-147.90;100.00;59510.75;4964689;28;20094;-81
2022/05/31 02:10:28;;;;;;;12.75;5.63;;;;;;;-147.90;100.00;59510.75;4961276;28;20047;-80
2022/05/31 02:12:55;;;;;;;10.32;6.00;;;;;;;-147.90;100.00;59510.75;4961220;28;20098;-81
2022/05/31 02:15:24;;;;;;;9.57;6.18;;;;;;;-147.90;100.00;59510.75;4960770;28;20039;-81
2022/05/31 02:17:51;;;;;;;12.35;6.30;;;;;;;-147.90;100.00;59510.75;4960246;28;20059;-81
2022/05/31 02:20:18;;;;;;;14.15;6.72;;;;;;;-147.90;100.00;59510.75;4960488;28;20047;-82
2022/05/31 02:22:45;;;;;;;11.10;6.40;;;;;;;-147.90;100.00;59510.75;4962233;28;20054;-82
2022/05/31 02:25:13;;;;;;;9.93;6.35;;;;;;;-147.90;100.00;59510.75;4961443;28;20051;-81
2022/05/31 02:27:40;;;;;;;10.00;7.00;;;;;;;-147.90;100.00;59510.75;4961291;28;20050;-81
2022/05/31 02:30:08;;;;;;;9.55;6.07;;;;;;;-147.90;100.00;59510.75;4959786;28;20046;-81
2022/05/31 02:32:35;;;;;;;11.15;6.47;;;;;;;-147.90;100.00;59510.75;4960872;28;20077;-81
2022/05/31 02:35:03;;;;;;;11.50;6.50;;;;;;;-147.90;100.00;59510.75;4961048;28;20110;-81
2022/05/31 02:37:30;;;;;;;10.55;6.22;;;;;;;-147.90;100.00;59510.75;4962148;28;20047;-82
2022/05/31 02:39:57;;;;;;;9.98;6.13;;;;;;;-147.90;100.00;59510.75;4961813;28;20505;-80
2022/05/31 02:42:25;;;;;;;13.23;6.47;;;;;;;-147.90;100.00;59510.75;4960299;28;20180;-82
2022/05/31 02:44:52;;;;;;;11.23;6.13;;;;;;;-147.90;100.00;59510.75;4960330;28;20047;-82
2022/05/31 02:47:20;;;;;;;10.30;5.75;;;;;;;-147.90;100.00;59510.75;4961782;28;20073;-81
2022/05/31 02:49:48;;;;;;;11.98;6.55;;;;;;;-147.90;100.00;59510.75;4959407;28;20058;-81
2022/05/31 02:52:16;;;;;;;9.63;5.32;;;;;;;-147.90;100.00;59510.75;4959938;28;20121;-82
2022/05/31 02:54:43;;;;;;;11.27;6.10;;;;;;;-147.90;100.00;59510.75;4960640;28;20450;-81
2022/05/31 02:57:10;;;;;;;13.85;7.05;;;;;;;-147.90;100.00;59510.75;4960051;28;20461;-81
2022/05/31 02:59:38;;;;;;;14.20;6.47;;;;;;;-147.90;100.00;59510.75;4960565;28;20094;-81
2022/05/31 03:02:05;;;;;;;10.77;5.88;;;;;;;-147.90;100.00;59510.75;4960348;28;20485;-81
2022/05/31 03:04:31;;;;;;;11.25;6.18;;;;;;;-147.90;100.00;59510.75;4959824;28;20885;-82
2022/05/31 03:07:01;;;;;;;10.43;6.75;;;;;;;-147.90;100.00;59510.75;4959244;28;20039;-81
2022/05/31 03:09:29;;;;;;;10.40;6.60;;;;;;;-147.90;100.00;59510.75;4960659;28;20506;-83
2022/05/31 03:11:59;;;;;;;12.73;6.43;;;;;;;-147.90;100.00;59510.75;4961231;28;20043;-81
2022/05/31 03:14:31;;;;;;;10.50;6.47;;;;;;;-147.90;100.00;59510.75;4960518;28;20459;-81
2022/05/31 03:17:04;;;;;;;11.70;6.28;;;;;;;-147.90;100.00;59510.75;4959003;28;20051;-81
2022/05/31 03:19:35;;;;;;;13.93;6.75;;;;;;;-147.90;100.00;59510.75;4959448;28;20051;-81
2022/05/31 03:22:06;;;;;;;10.85;7.18;;;;;;;-147.90;100.00;59510.75;4960555;28;20110;-82
2022/05/31 03:24:37;;;;;;;12.43;6.38;;;;;;;-147.90;100.00;59510.75;4962196;28;20441;-81
2022/05/31 03:27:08;;;;;;;11.90;6.55;;;;;;;-147.90;100.00;59510.75;4963438;28;20059;-82
2022/05/31 03:29:38;;;;;;;11.65;6.78;;;;;;;-147.90;100.00;59510.75;4966634;28;20046;-81
2022/05/31 03:32:08;;;;;;;13.13;6.85;;;;;;;-147.90;100.00;59510.75;4967740;28;20043;-81
2022/05/31 03:34:35;;;;;;;11.65;6.80;;;;;;;-147.90;100.00;59510.75;4967869;28;20081;-81
2022/05/31 03:37:01;;;;;;;12.95;6.80;;;;;;;-147.90;100.00;59510.75;4966876;28;20391;-82
2022/05/31 03:39:28;;;;;;;10.48;6.53;;;;;;;-147.90;100.00;59510.75;4967741;28;20102;-81
2022/05/31 03:41:55;;;;;;;9.73;5.78;;;;;;;-147.90;100.00;59510.75;4966563;28;20481;-82
2022/05/31 03:44:21;;;;;;;11.45;6.47;;;;;;;-147.90;100.00;59510.75;4967766;28;20086;-82
2022/05/31 03:46:48;;;;;;;10.13;6.55;;;;;;;-147.90;100.00;59510.75;4967145;28;20556;-82
2022/05/31 03:49:17;;;;;;;13.52;7.25;;;;;;;-147.90;100.00;59510.75;4966367;28;20043;-81
2022/05/31 03:51:44;;;;;;;12.52;6.20;;;;;;;-147.90;100.00;59510.75;4968187;28;20038;-81
2022/05/31 03:54:10;;;;;;;22.27;7.72;;;;;;;-147.90;100.00;59510.75;4965806;28;20471;-81
2022/05/31 03:56:37;;;;;;;11.20;6.82;;;;;;;-147.90;100.00;59510.75;4967737;28;20050;-80
2022/05/31 03:59:04;;;;;;;10.48;5.72;;;;;;;-147.90;100.00;59510.75;4966834;28;20066;-81
2022/05/31 04:01:31;;;;;;;12.20;6.47;;;;;;;-147.90;100.00;59510.75;4967122;28;20040;-81
2022/05/31 04:03:58;;;;;;;11.07;6.00;;;;;;;-147.90;100.00;59510.75;4966623;28;20481;-82
2022/05/31 04:06:26;;;;;;;12.90;6.50;;;;;;;-147.90;100.00;59510.75;4966191;28;20050;-81
2022/05/31 04:08:53;;;;;;;9.68;6.35;;;;;;;-147.90;100.00;59510.75;4967040;28;20121;-82
2022/05/31 04:11:19;;;;;;;11.98;6.03;;;;;;;-147.90;100.00;59510.75;4966593;28;20109;-81
2022/05/31 04:13:46;;;;;;;9.73;5.82;;;;;;;-147.90;100.00;59510.75;4967175;28;20134;-81
2022/05/31 04:16:15;;;;;;;11.18;6.00;;;;;;;-147.90;100.00;59510.75;4964895;28;20054;-81
2022/05/31 04:18:42;;;;;;;10.38;6.22;;;;;;;-147.90;100.00;59510.75;4965139;28;20047;-81
2022/05/31 04:21:12;;;;;;;10.68;6.80;;;;;;;-147.90;100.00;59510.75;4965026;28;20102;-82
2022/05/31 04:26:24;;;;;;;;;;;;;;;-147.90;100.00;59510.75;4965837;28;21216;-81
2022/05/31 04:28:51;;;;;;;8.48;6.25;;;;;;;-147.90;100.00;59510.75;4965160;28;19926;-82
2022/05/31 04:31:17;;;;;;;9.05;6.25;;;;;;;-147.90;100.00;59510.75;4962587;28;20043;-82
2022/05/31 04:33:44;;;;;;;11.68;6.13;;;;;;;-147.90;100.00;59510.75;4964775;28;20106;-81
2022/05/31 04:36:13;;;;;;;12.90;7.45;;;;;;;-147.90;100.00;59510.75;4962223;28;20098;-82
2022/05/31 04:38:42;;;;;;;10.75;6.70;;;;;;;-147.90;100.00;59510.75;4962651;28;20110;-81
2022/05/31 04:41:15;;;;;;;14.13;7.53;;;;;;;-147.90;100.00;59510.75;4962059;28;20058;-82
2022/05/31 04:43:42;;;;;;;11.25;6.82;;;;;;;-147.90;100.00;59510.75;4963294;28;20493;-81
2022/05/31 04:46:12;;;;;;;17.70;8.13;;;;;;;-147.90;100.00;59510.75;4962027;28;20055;-81
2022/05/31 04:48:39;;;;;;;16.15;8.43;;;;;;;-147.90;100.00;59510.75;4964802;28;20102;-81
2022/05/31 04:51:06;;;;;;;15.63;7.90;;;;;;;-147.90;100.00;59510.75;4967475;28;20055;-82
2022/05/31 04:53:33;;;;;;;16.88;8.50;;;;;;;-147.90;100.00;59510.75;4965198;28;20055;-82
2022/05/31 04:56:03;;;;;;;18.52;7.65;;;;;;;-147.90;100.00;59510.75;4965859;28;20445;-82
2022/05/31 04:58:30;;;;;;;11.93;8.27;;;;;;;-147.90;100.00;59510.75;4965054;28;20055;-82
2022/05/31 05:00:57;;;;;;;14.38;7.63;;;;;;;-147.90;100.00;59510.75;4966677;28;20097;-81
2022/05/31 05:03:24;;;;;;;15.35;7.93;;;;;;;-147.90;100.00;59510.75;4966242;28;20059;-81
2022/05/31 05:05:51;;;;;;;10.68;7.88;;;;;;;-147.90;100.00;59510.75;4965908;28;20099;-82
2022/05/31 05:08:18;;;;;;;15.50;8.98;;;;;;;-147.90;100.00;59510.75;4965803;28;20058;-82
2022/05/31 05:10:45;;;;;;;14.25;7.80;;;;;;;-147.90;100.00;59510.75;4965311;28;20050;-81
2022/05/31 05:13:14;;;;;;;14.82;9.43;;;;;;;-147.90;100.00;59510.75;4964688;28;20496;-81
2022/05/31 05:15:41;;;;;;;16.05;9.63;;;;;;;-147.90;100.00;59510.75;4963019;28;20048;-81
2022/05/31 05:18:09;;;;;;;14.23;7.75;;;;;;;-147.90;100.00;59510.75;4964313;28;20054;-81
2022/05/31 05:20:38;;;;;;;16.20;8.15;;;;;;;-147.90;100.00;59510.75;4962551;28;20070;-81
2022/05/31 05:23:05;;;;;;;17.08;8.40;;;;;;;-147.90;100.00;59510.75;4963062;28;20046;-81
2022/05/31 05:25:32;;;;;;;17.05;8.77;;;;;;;-147.90;100.00;59510.75;4961435;28;20043;-81
2022/05/31 05:27:59;;;;;;;20.20;9.43;;;;;;;-147.90;100.00;59510.75;4962671;28;20097;-81
2022/05/31 05:30:40;;;;;;;15.00;9.48;;;;;;;-147.90;100.00;59510.75;4962125;28;20054;-81
2022/05/31 05:33:09;;;;;;;14.98;8.20;;;;;;;-147.90;100.00;59510.75;4965566;28;20066;-81
2022/05/31 05:35:36;;;;;;;20.98;10.68;;;;;;;-147.90;100.00;59510.75;4964284;28;20039;-81
2022/05/31 05:38:04;;;;;;;21.13;10.00;;;;;;;-147.90;100.00;59510.75;4965958;28;20098;-82
2022/05/31 05:40:31;;;;;;;19.25;10.48;;;;;;;-147.90;100.00;59510.75;4965665;28;20047;-82
2022/05/31 05:42:57;;;;;;;18.23;10.18;;;;;;;-147.90;100.00;59510.75;4963692;28;20461;-81
2022/05/31 05:45:24;;;;;;;30.50;10.88;;;;;;;-147.90;100.00;59510.75;4965259;28;20504;-81
2022/05/31 05:47:52;;;;;;;18.08;10.45;;;;;;;-147.90;100.00;59510.75;4963079;28;20514;-81
2022/05/31 05:50:19;;;;;;;21.45;9.40;;;;;;;-147.90;100.00;59510.75;4963982;28;20047;-81
2022/05/31 05:52:50;;;;;;;18.08;9.80;;;;;;;-147.90;100.00;59510.75;4963438;28;20137;-82
2022/05/31 05:55:17;;;;;;;19.55;9.20;;;;;;;-147.90;100.00;59510.75;4964262;28;20559;-82
2022/05/31 05:57:44;;;;;;;20.95;10.10;;;;;;;-147.90;100.00;59510.75;4963650;28;20051;-81
2022/05/31 06:00:12;;;;;;;17.17;9.32;;;;;;;-147.90;100.00;59510.75;4964303;28;20059;-81
2022/05/31 06:02:41;;;;;;;18.60;10.43;;;;;;;-147.90;100.00;59510.75;4966810;28;20389;-81
2022/05/31 06:05:15;;;;;;;26.33;11.85;;;;;;;-147.90;100.00;59510.75;4970109;28;20043;-81
2022/05/31 06:07:45;;;;;;;23.90;11.85;;;;;;;-147.90;100.00;59510.75;4970170;28;20105;-81
2022/05/31 06:10:16;;;;;;;17.98;8.95;;;;;;;-147.90;100.00;59510.75;4971475;28;20098;-81
2022/05/31 06:12:48;;;;;;;18.30;8.65;;;;;;;-147.90;100.00;59510.75;4971494;28;20051;-81
2022/05/31 06:15:19;;;;;;;31.10;12.15;;;;;;;-147.90;100.00;59510.75;4971461;28;20055;-81
2022/05/31 06:17:49;;;;;;;27.95;12.25;;;;;;;-147.90;100.00;59510.75;4971139;28;20453;-81
2022/05/31 06:20:17;;;;;;;15.38;7.97;;;;;;;-147.90;100.00;59510.75;4971228;28;20457;-81
2022/05/31 06:22:44;;;;;;;10.00;5.18;;;;;;;-147.90;100.00;59510.75;4971496;28;20051;-80
2022/05/31 06:25:16;;;;;;;16.65;5.93;;;;;;;-147.90;100.00;59510.75;4971265;28;20058;-79
2022/05/31 06:27:43;;;;;;;14.90;6.63;;;;;;;-147.90;100.00;59510.75;4969820;28;20047;-79
2022/05/31 06:30:11;;;;;;;15.82;7.43;;;;;;;-147.90;100.00;59510.75;4971165;28;20043;-80
2022/05/31 06:32:38;;;;;;;14.65;7.43;;;;;;;-147.90;100.00;59510.75;4970887;28;20047;-79
2022/05/31 06:35:05;;;;;;;18.52;7.18;;;;;;;-147.90;100.00;59510.75;4971441;28;20046;-80
2022/05/31 06:37:33;;;;;;;15.40;7.88;;;;;;;-147.90;100.00;59510.75;4971129;28;20050;-79
2022/05/31 06:40:00;;;;;;;16.23;7.75;;;;;;;-147.90;100.00;59510.75;4971178;28;20058;-80
2022/05/31 06:42:29;;;;;;;14.30;7.65;;;;;;;-147.90;100.00;59510.75;4970961;28;20043;-80
2022/05/31 06:44:57;;;;;;;21.25;8.10;;;;;;;-147.90;100.00;59510.75;4970803;28;20050;-80
2022/05/31 06:47:23;;;;;;;22.20;9.38;;;;;;;-147.90;100.00;59510.75;4971198;28;20121;-80
2022/05/31 06:49:50;;;;;;;20.95;7.80;;;;;;;-147.90;100.00;59510.75;4970773;28;20530;-80
2022/05/31 06:57:48;;;;;;;15.38;7.63;;;;;;;-147.90;100.00;59510.75;4969652;28;20049;-80
2022/05/31 07:00:18;;;;;;;12.60;6.15;;;;;;;-147.90;100.00;59510.75;4971024;28;20156;-80
2022/05/31 07:02:45;;;;;;;13.02;6.47;;;;;;;-147.90;100.00;59510.75;4968944;28;20489;-80
2022/05/31 07:05:13;;;;;;;10.38;6.18;;;;;;;-147.90;100.00;59510.75;4970778;28;20109;-79
2022/05/31 07:07:41;;;;;;;13.18;5.13;;;;;;;-147.90;100.00;59510.75;4970728;28;20039;-80
2022/05/31 07:10:10;;;;;;;11.20;5.10;;;;;;;-147.90;100.00;59510.75;4970886;28;20051;-80
2022/05/31 07:12:38;;;;;;;9.43;4.82;;;;;;;-147.90;100.00;59510.75;4970986;28;20192;-81
2022/05/31 07:15:06;;;;;;;9.88;4.38;;;;;;;-147.90;100.00;59510.75;4970633;28;20502;-80
2022/05/31 07:17:33;;;;;;;11.60;4.43;;;;;;;-147.90;100.00;59510.75;4970552;28;20054;-82
2022/05/31 07:20:00;;;;;;;18.73;5.47;;;;;;;-147.90;100.00;59510.75;4968775;28;20043;-81
2022/05/31 07:22:27;;;;;;;14.98;4.50;;;;;;;-147.90;100.00;59510.75;4970407;28;20458;-81
2022/05/31 07:24:53;;;;;;;13.38;4.80;;;;;;;-147.90;100.00;59510.75;4970608;28;20105;-80
2022/05/31 07:27:21;;;;;;;14.95;5.05;;;;;;;-147.90;100.00;59510.75;4970712;28;20094;-80
2022/05/31 07:29:48;;;;;;;13.93;4.68;;;;;;;-147.90;100.00;59510.75;4968588;28;20047;-82
2022/05/31 07:32:15;;;;;;;22.17;5.75;;;;;;;-147.90;100.00;59510.75;4970449;28;20047;-81
2022/05/31 07:34:42;;;;;;;17.08;4.90;;;;;;;-147.90;100.00;59510.75;4965690;28;20398;-81
2022/05/31 07:37:09;;;;;;;18.05;4.57;;;;;;;-147.90;100.00;59510.75;4961681;28;20043;-81
2022/05/31 07:39:37;;;;;;;19.00;3.50;;;;;;;-147.90;100.00;59510.75;4959914;28;20102;-81
2022/05/31 07:42:04;;;;;;;14.55;3.47;;;;;;;-147.90;100.00;59510.75;4961402;28;20086;-81
2022/05/31 07:44:32;;;;;;;10.20;3.70;;;;;;;-147.90;100.00;59510.75;4961154;28;20055;-81
2022/05/31 07:47:01;;;;;;;10.32;3.20;;;;;;;-147.90;100.00;59510.75;4960129;28;20051;-82
2022/05/31 07:49:28;;;;;;;7.47;2.78;;;;;;;-147.90;100.00;59510.75;4960542;28;20473;-82
2022/05/31 07:51:55;;;;;;;8.82;2.72;;;;;;;-147.90;100.00;59510.75;4967482;28;20113;-81
2022/05/31 07:54:21;;;;;;;8.82;3.60;;;;;;;-147.90;100.00;59510.75;4970564;28;20050;-82
2022/05/31 07:56:49;;;;;;;10.40;3.22;;;;;;;-147.90;100.00;59510.75;4970381;28;20051;-82
2022/05/31 07:59:15;;;;;;;8.23;2.50;;;;;;;-147.90;100.00;59510.75;4967003;28;20059;-81
2022/05/31 08:01:44;;;;;;;8.18;3.25;;;;;;;-147.90;100.00;59510.75;4969674;28;20054;-80
2022/05/31 08:04:10;;;;;;;7.50;2.85;;;;;;;-147.90;100.00;59510.75;4969849;28;20051;-81
2022/05/31 08:06:37;;;;;;;7.45;2.30;;;;;;;-147.90;100.00;59510.75;4970210;28;20179;-81
2022/05/31 08:09:05;;;;;;;10.95;3.75;;;;;;;-147.90;100.00;59510.75;4970131;28;20106;-80
2022/05/31 08:11:34;;;;;;;8.57;2.88;;;;;;;-147.90;100.00;59510.75;4970010;28;20432;-81
2022/05/31 08:14:01;;;;;;;9.35;3.10;;;;;;;-147.90;100.00;59510.75;4971445;28;20050;-81
2022/05/31 08:16:29;;;;;;;8.35;3.15;;;;;;;-147.90;100.00;59510.75;4973532;28;20081;-81
2022/05/31 08:18:58;;;;;;;8.85;3.42;;;;;;;-147.90;100.00;59510.75;4973272;28;20155;-81
2022/05/31 08:21:28;;;;;;;8.48;3.00;;;;;;;-147.90;100.00;59510.75;4970349;28;20046;-82
2022/05/31 08:23:56;;;;;;;8.20;2.90;;;;;;;-147.90;100.00;59510.75;4971958;28;20046;-81
2022/05/31 08:26:23;;;;;;;15.07;3.30;;;;;;;-147.90;100.00;59510.75;4971662;28;20058;-81
2022/05/31 08:28:50;;;;;;;8.80;3.00;;;;;;;-147.90;100.00;59510.75;4973265;28;20456;-81
2022/05/31 08:31:22;;;;;;;11.73;3.78;;;;;;;-147.90;100.00;59510.75;4973082;28;20050;-81
2022/05/31 08:34:09;;;;;;;7.10;3.00;;;;;;;-147.90;100.00;59510.75;4973063;28;20094;-81
2022/05/31 08:36:37;;;;;;;8.55;2.72;;;;;;;-147.90;100.00;59510.75;4972999;28;20050;-81
2022/05/31 08:39:04;;;;;;;7.82;3.08;;;;;;;-147.90;100.00;59510.75;4973151;28;20077;-81
2022/05/31 08:41:33;;;;;;;11.90;3.25;;;;;;;-147.90;100.00;59510.75;4973091;28;20106;-82
2022/05/31 08:44:12;;;;;;;7.47;3.10;;;;;;;-147.90;100.00;59510.75;4973152;28;20568;-82
2022/05/31 08:46:52;;;;;;;9.15;2.72;;;;;;;-147.90;100.00;59510.75;4972817;28;20050;-82
2022/05/31 08:52:25;;;;;;;8.77;3.72;;;;;;;-147.90;100.00;59510.75;4971393;28;20042;-81
2022/05/31 08:57:41;;;;;;;10.65;3.42;;;;;;;-147.90;100.00;59510.75;4955443;28;20090;-82
2022/05/31 09:00:16;;;;;;;9.65;3.03;;;;;;;-147.90;100.00;59510.75;4972850;28;20121;-82
2022/05/31 09:02:49;;;;;;;12.80;3.53;;;;;;;-147.90;100.00;59510.75;4970988;28;20046;-82
2022/05/31 09:05:28;;;;;;;11.77;2.25;;;;;;;-147.90;100.00;59510.75;4971305;28;20051;-82
2022/05/31 09:08:01;;;;;;;7.65;3.10;;;;;;;-147.90;100.00;59510.75;4961991;28;20089;-82
2022/05/31 09:10:33;;;;;;;5.75;2.80;;;;;;;-147.90;100.00;59510.75;4971032;28;20138;-83
2022/05/31 09:13:04;;;;;;;7.40;2.70;;;;;;;-147.90;100.00;59510.75;4970648;28;20051;-83
2022/05/31 09:15:36;;;;;;;11.68;3.30;;;;;;;-147.90;100.00;59510.75;4970863;28;20556;-82
2022/05/31 09:18:10;;;;;;;8.48;3.50;;;;;;;-147.90;100.00;59510.75;4971214;28;20130;-81
2022/05/31 09:20:42;;;;;;;11.85;3.35;;;;;;;-147.90;100.00;59510.75;4968081;28;20054;-82
2022/05/31 09:23:10;;;;;;;7.47;2.88;;;;;;;-147.90;100.00;59510.75;4972077;28;20075;-82
2022/05/31 09:25:41;;;;;;;7.85;3.10;;;;;;;-147.90;100.00;59510.75;4971391;28;20090;-82
2022/05/31 09:28:24;;;;;;;7.78;2.25;;;;;;;-147.90;100.00;59510.75;4971134;28;20418;-81
2022/05/31 09:30:53;;;;;;;6.65;2.60;;;;;;;-147.90;100.00;59510.75;4971023;28;20043;-82
2022/05/31 09:33:25;;;;;;;7.53;2.88;;;;;;;-147.90;100.00;59510.75;4971565;28;20053;-82
2022/05/31 09:36:12;;;;;;;7.47;2.75;;;;;;;-147.90;100.00;59510.75;4968695;28;20050;-82
2022/05/31 09:38:57;;;;;;;7.57;2.88;;;;;;;-147.90;100.00;59510.75;4969778;28;20464;-82
2022/05/31 09:41:26;;;;;;;;;;;;;;;-147.90;100.00;59510.75;4971480;28;20038;-81
2022/05/31 09:44:04;;;;;;;5.30;2.05;;;;;;;-147.90;100.00;59510.75;4971890;28;19926;-82
2022/05/31 09:46:37;;;;;;;7.28;2.33;;;;;;;-147.90;100.00;59510.75;4961885;28;20051;-82
2022/05/31 09:49:16;;;;;;;7.43;2.30;;;;;;;-147.90;100.00;59510.75;4967869;28;20047;-83
2022/05/31 09:51:44;;;;;;;7.03;2.72;;;;;;;-147.90;100.00;59510.75;4971272;28;20101;-82
2022/05/31 09:57:09;;;;;;;5.00;2.38;;;;;;;-147.90;100.00;59510.75;4967483;28;20054;-82
2022/05/31 09:59:44;;;;;;;6.82;2.60;;;;;;;-147.90;100.00;59510.75;4966369;28;20046;-82
2022/05/31 10:02:21;;;;;;;8.40;2.97;;;;;;;-147.90;100.00;59510.75;4970212;28;20055;-83
2022/05/31 10:04:49;;;;;;;4.00;2.20;;;;;;;-147.90;100.00;59510.75;4971143;28;21275;-82
2022/05/31 10:07:35;;;;;;;7.45;3.45;;;;;;;-147.90;100.00;59510.75;4971805;28;20113;-83
2022/05/31 10:10:06;;;;;;;5.82;2.70;;;;;;;-147.90;100.00;59510.75;4970966;28;20054;-82
2022/05/31 10:12:34;;;;;;;7.07;3.03;;;;;;;-147.90;100.00;59510.75;4969255;28;20050;-82
2022/05/31 10:15:03;;;;;;;8.73;3.10;;;;;;;-147.90;100.00;59510.75;4970038;28;20038;-82
2022/05/31 10:17:42;;;;;;;8.85;2.83;;;;;;;-147.90;100.00;59510.75;4968278;28;20058;-82
2022/05/31 10:20:20;;;;;;;7.85;3.30;;;;;;;-147.90;100.00;59510.75;4966857;28;20124;-84
2022/05/31 10:23:10;;;;;;;7.35;1.90;;;;;;;-147.90;100.00;59510.75;4960765;28;20290;-84
2022/05/31 10:25:41;;;;;;;4.85;1.65;;;;;;;-147.90;100.00;59510.75;4969257;28;20085;-82
2022/05/31 10:28:15;;;;;;;6.70;2.58;;;;;;;-147.90;100.00;59510.75;4972075;28;20082;-83
2022/05/31 10:30:42;;;;;;;7.63;2.00;;;;;;;-147.90;100.00;59510.75;4970247;28;20046;-84
2022/05/31 10:33:13;;;;;;;4.20;1.77;;;;;;;-147.90;100.00;59510.75;4971683;28;20050;-82
2022/05/31 10:35:43;;;;;;;3.47;1.73;;;;;;;-147.90;100.00;59510.75;4969789;28;20098;-83
2022/05/31 10:38:30;;;;;;;4.88;1.52;;;;;;;-147.90;100.00;59510.75;4969117;28;20482;-83
2022/05/31 10:41:02;;;;;;;2.53;1.58;;;;;;;-147.90;100.00;59510.75;4971185;28;20047;-86
2022/05/31 10:43:36;;;;;;;7.03;2.78;;;;;;;-147.90;100.00;59510.75;4970049;28;20468;-82
2022/05/31 10:46:08;;;;;;;4.57;1.52;;;;;;;-147.90;100.00;59510.75;4969991;28;20094;-82
2022/05/31 10:48:41;;;;;;;3.03;1.00;;;;;;;-147.90;100.00;59510.75;4971128;28;20067;-82
2022/05/31 10:51:14;;;;;;;6.18;1.95;;;;;;;-147.90;100.00;59510.75;4970676;28;20061;-82
2022/05/31 10:53:54;;;;;;;3.80;1.60;;;;;;;-147.90;100.00;59510.75;4969420;28;20098;-82
2022/05/31 10:56:30;;;;;;;5.90;1.63;;;;;;;-147.90;100.00;59510.75;4970494;28;20042;-82
2022/05/31 10:59:01;;;;;;;4.82;1.23;;;;;;;-147.90;100.00;59510.75;4971147;28;20548;-88
2022/05/31 11:01:47;;;;;;;3.80;0.80;;;;;;;-147.90;100.00;59510.75;4969102;28;20051;-86
2022/05/31 11:04:34;;;;;;;2.92;1.25;;;;;;;-147.90;100.00;59510.75;4969351;28;20082;-81
2022/05/31 11:07:14;;;;;;;4.72;1.15;;;;;;;-147.90;100.00;59510.75;4967443;28;20515;-82
2022/05/31 11:13:00;;;;;;;2.55;1.23;;;;;;;-147.90;100.00;59510.75;4934311;28;20109;-82
2022/05/31 11:15:39;;;;;;;3.45;1.40;;;;;;;-147.90;100.00;59510.75;4970558;28;20476;-86
2022/05/31 11:18:35;;;;;;;5.13;1.65;;;;;;;-147.90;100.00;59510.75;4969537;28;20406;-85
2022/05/31 11:21:11;;;;;;;4.53;1.70;;;;;;;-147.90;100.00;59510.75;4969140;28;20110;-83
2022/05/31 11:23:54;;;;;;;4.03;1.30;;;;;;;-147.90;100.00;59510.75;4968966;28;20105;-83
2022/05/31 11:26:42;;;;;;;3.08;1.30;;;;;;;-147.90;100.00;59510.75;4964450;28;20086;-83
2022/05/31 11:29:31;;;;;;;4.10;1.13;;;;;;;-147.90;100.00;59510.75;4962042;28;20051;-83
2022/05/31 11:32:08;;;;;;;3.28;1.20;;;;;;;-147.90;100.00;59510.75;4961504;28;20054;-82
2022/05/31 11:34:48;;;;;;;4.35;1.30;;;;;;;-147.90;100.00;59510.75;4966913;28;20070;-84
2022/05/31 11:37:35;;;;;;;3.30;1.85;;;;;;;-147.90;100.00;59510.75;4967634;28;20497;-83